sensor_id;sensor_type;location;lat;lon;timestamp;pressure;altitude;pressure_sealevel;temperature;humidity
60345;BME280;46188;52.324;8.032;2023-03-25T00:01:29;99024.44;;;8.28;100.00
60345;BME280;46188;52.324;8.032;2023-03-25T00:03:58;99019.19;;;8.30;100.00
60345;BME280;46188;52.324;8.032;2023-03-25T00:06:25;99028.81;;;8.26;100.00
60345;BME280;46188;52.324;8.032;2023-03-25T00:08:50;99021.81;;;8.25;100.00
60345;BME280;46188;52.324;8.032;2023-03-25T00:11:15;99017.44;;;8.26;100.00
60345;BME280;46188;52.324;8.032;2023-03-25T00:13:41;99029.69;;;8.31;100.00
60345;BME280;46188;52.324;8.032;2023-03-25T00:16:06;99031.44;;;8.29;100.00
60345;BME280;46188;52.324;8.032;2023-03-25T00:18:34;99032.31;;;8.28;100.00
60345;BME280;46188;52.324;8.032;2023-03-25T00:21:00;99038.47;;;8.24;100.00
60345;BME280;46188;52.324;8.032;2023-03-25T00:23:27;99034.06;;;8.25;100.00
60345;BME280;46188;52.324;8.032;2023-03-25T00:25:52;99042.81;;;8.27;100.00
60345;BME280;46188;52.324;8.032;2023-03-25T00:28:24;99040.22;;;8.13;100.00
60345;BME280;46188;52.324;8.032;2023-03-25T00:30:49;99024.50;;;8.07;100.00
60345;BME280;46188;52.324;8.032;2023-03-25T00:33:17;99048.13;;;7.96;100.00
60345;BME280;46188;52.324;8.032;2023-03-25T00:35:42;99039.41;;;7.88;100.00
60345;BME280;46188;52.324;8.032;2023-03-25T00:38:13;99040.25;;;7.81;100.00
60345;BME280;46188;52.324;8.032;2023-03-25T00:40:39;99036.78;;;7.77;100.00
60345;BME280;46188;52.324;8.032;2023-03-25T00:43:05;99049.88;;;7.72;100.00
60345;BME280;46188;52.324;8.032;2023-03-25T00:45:31;99035.03;;;7.71;100.00
60345;BME280;46188;52.324;8.032;2023-03-25T00:47:56;99036.78;;;7.68;100.00
60345;BME280;46188;52.324;8.032;2023-03-25T00:50:22;99036.78;;;7.71;100.00
60345;BME280;46188;52.324;8.032;2023-03-25T00:52:48;99036.78;;;7.69;100.00
60345;BME280;46188;52.324;8.032;2023-03-25T00:55:14;99041.16;;;7.67;100.00
60345;BME280;46188;52.324;8.032;2023-03-25T00:57:39;99035.03;;;7.70;100.00
60345;BME280;46188;52.324;8.032;2023-03-25T01:00:07;99038.53;;;7.67;100.00
60345;BME280;46188;52.324;8.032;2023-03-25T01:02:33;99046.41;;;7.70;100.00
60345;BME280;46188;52.324;8.032;2023-03-25T01:04:59;99044.63;;;7.69;100.00
60345;BME280;46188;52.324;8.032;2023-03-25T01:07:24;99036.78;;;7.68;100.00
60345;BME280;46188;52.324;8.032;2023-03-25T01:09:50;99045.53;;;7.73;100.00
60345;BME280;46188;52.324;8.032;2023-03-25T01:12:15;99033.28;;;7.75;100.00
60345;BME280;46188;52.324;8.032;2023-03-25T01:14:43;99019.28;;;7.74;100.00
60345;BME280;46188;52.324;8.032;2023-03-25T01:17:08;99026.28;;;7.77;100.00
60345;BME280;46188;52.324;8.032;2023-03-25T01:19:34;99025.41;;;7.76;100.00
60345;BME280;46188;52.324;8.032;2023-03-25T01:21:59;99035.91;;;7.76;100.00
60345;BME280;46188;52.324;8.032;2023-03-25T01:24:25;99025.41;;;7.80;100.00
60345;BME280;46188;52.324;8.032;2023-03-25T01:26:50;99033.28;;;7.81;100.00
60345;BME280;46188;52.324;8.032;2023-03-25T01:29:18;99026.28;;;7.85;100.00
60345;BME280;46188;52.324;8.032;2023-03-25T01:31:43;99025.38;;;7.83;100.00
60345;BME280;46188;52.324;8.032;2023-03-25T01:34:10;99027.16;;;7.81;100.00
60345;BME280;46188;52.324;8.032;2023-03-25T01:36:35;99028.91;;;7.85;100.00
60345;BME280;46188;52.324;8.032;2023-03-25T01:39:05;99037.66;;;7.88;100.00
60345;BME280;46188;52.324;8.032;2023-03-25T01:41:32;99037.66;;;7.90;100.00
60345;BME280;46188;52.324;8.032;2023-03-25T01:44:09;99029.78;;;7.91;100.00
60345;BME280;46188;52.324;8.032;2023-03-25T01:46:54;99021.91;;;7.91;100.00
60345;BME280;46188;52.324;8.032;2023-03-25T01:49:26;99018.38;;;7.94;100.00
60345;BME280;46188;52.324;8.032;2023-03-25T01:51:58;99006.16;;;7.96;100.00
60345;BME280;46188;52.324;8.032;2023-03-25T01:54:25;99019.28;;;7.96;100.00
60345;BME280;46188;52.324;8.032;2023-03-25T01:56:51;99010.50;;;7.94;100.00
60345;BME280;46188;52.324;8.032;2023-03-25T01:59:19;99002.63;;;7.94;100.00
60345;BME280;46188;52.324;8.032;2023-03-25T02:01:49;99009.66;;;7.95;100.00
60345;BME280;46188;52.324;8.032;2023-03-25T02:04:20;99005.25;;;7.97;100.00
60345;BME280;46188;52.324;8.032;2023-03-25T02:06:51;99007.03;;;7.97;100.00
60345;BME280;46188;52.324;8.032;2023-03-25T02:09:20;99013.13;;;7.94;100.00
60345;BME280;46188;52.324;8.032;2023-03-25T02:11:46;99003.53;;;7.94;100.00
60345;BME280;46188;52.324;8.032;2023-03-25T02:14:14;98996.53;;;7.93;100.00
60345;BME280;46188;52.324;8.032;2023-03-25T02:16:48;99007.03;;;7.93;100.00
60345;BME280;46188;52.324;8.032;2023-03-25T02:30:34;98995.63;;;7.98;100.00
60345;BME280;46188;52.324;8.032;2023-03-25T02:33:29;99000.00;;;7.99;100.00
60345;BME280;46188;52.324;8.032;2023-03-25T02:41:22;98999.16;;;7.98;100.00
60345;BME280;46188;52.324;8.032;2023-03-25T02:43:54;99005.25;;;7.99;100.00
60345;BME280;46188;52.324;8.032;2023-03-25T02:46:23;99001.78;;;8.01;100.00
60345;BME280;46188;52.324;8.032;2023-03-25T02:49:00;98987.75;;;7.99;100.00
60345;BME280;46188;52.324;8.032;2023-03-25T02:51:30;98990.38;;;8.02;100.00
60345;BME280;46188;52.324;8.032;2023-03-25T02:54:03;98995.63;;;8.02;100.00
60345;BME280;46188;52.324;8.032;2023-03-25T02:56:31;98992.13;;;8.00;100.00
60345;BME280;46188;52.324;8.032;2023-03-25T02:58:58;98982.50;;;7.99;100.00
60345;BME280;46188;52.324;8.032;2023-03-25T03:01:24;98989.47;;;8.14;100.00
60345;BME280;46188;52.324;8.032;2023-03-25T03:03:54;98992.13;;;8.00;100.00
60345;BME280;46188;52.324;8.032;2023-03-25T03:06:20;98974.63;;;7.98;100.00
60345;BME280;46188;52.324;8.032;2023-03-25T03:11:15;98974.63;;;7.99;100.00
60345;BME280;46188;52.324;8.032;2023-03-25T03:17:01;98980.78;;;8.01;100.00
60345;BME280;46188;52.324;8.032;2023-03-25T03:19:48;98974.63;;;8.04;100.00
60345;BME280;46188;52.324;8.032;2023-03-25T03:22:33;98988.59;;;8.10;100.00
60345;BME280;46188;52.324;8.032;2023-03-25T03:25:08;98963.25;;;8.06;100.00
60345;BME280;46188;52.324;8.032;2023-03-25T03:27:41;98960.63;;;8.05;100.00
60345;BME280;46188;52.324;8.032;2023-03-25T03:30:12;98958.88;;;8.04;100.00
60345;BME280;46188;52.324;8.032;2023-03-25T03:32:43;98959.72;;;8.10;100.00
60345;BME280;46188;52.324;8.032;2023-03-25T03:35:17;98960.63;;;8.05;100.00
60345;BME280;46188;52.324;8.032;2023-03-25T03:37:50;98962.41;;;8.04;100.00
60345;BME280;46188;52.324;8.032;2023-03-25T03:40:18;98971.13;;;8.03;100.00
60345;BME280;46188;52.324;8.032;2023-03-25T03:42:51;98957.16;;;8.04;100.00
60345;BME280;46188;52.324;8.032;2023-03-25T03:45:28;98952.75;;;8.05;100.00
60345;BME280;46188;52.324;8.032;2023-03-25T03:47:57;98948.38;;;8.08;100.00
60345;BME280;46188;52.324;8.032;2023-03-25T03:50:27;98966.75;;;8.07;100.00
60345;BME280;46188;52.324;8.032;2023-03-25T03:53:02;98952.75;;;8.05;100.00
60345;BME280;46188;52.324;8.032;2023-03-25T03:55:38;98954.53;;;8.04;100.00
60345;BME280;46188;52.324;8.032;2023-03-25T03:58:08;98965.00;;;8.06;100.00
60345;BME280;46188;52.324;8.032;2023-03-25T04:03:31;98962.38;;;8.06;100.00
60345;BME280;46188;52.324;8.032;2023-03-25T04:06:04;98957.16;;;8.04;100.00
60345;BME280;46188;52.324;8.032;2023-03-25T04:11:19;98955.38;;;8.03;100.00
60345;BME280;46188;52.324;8.032;2023-03-25T04:13:48;98965.03;;;8.01;100.00
60345;BME280;46188;52.324;8.032;2023-03-25T04:16:16;98977.25;;;7.99;100.00
60345;BME280;46188;52.324;8.032;2023-03-25T04:18:41;98969.38;;;7.99;100.00
60345;BME280;46188;52.324;8.032;2023-03-25T04:21:08;98979.91;;;7.96;100.00
60345;BME280;46188;52.324;8.032;2023-03-25T04:23:33;98971.16;;;7.94;100.00
60345;BME280;46188;52.324;8.032;2023-03-25T04:26:01;98975.53;;;7.92;100.00
60345;BME280;46188;52.324;8.032;2023-03-25T04:28:27;98975.53;;;7.89;100.00
60345;BME280;46188;52.324;8.032;2023-03-25T04:30:52;98987.78;;;7.90;100.00
60345;BME280;46188;52.324;8.032;2023-03-25T04:33:23;98982.53;;;7.91;100.00
60345;BME280;46188;52.324;8.032;2023-03-25T04:35:49;98965.03;;;7.83;100.00
60345;BME280;46188;52.324;8.032;2023-03-25T04:38:16;98976.44;;;7.80;100.00
60345;BME280;46188;52.324;8.032;2023-03-25T04:40:45;98973.81;;;7.75;100.00
60345;BME280;46188;52.324;8.032;2023-03-25T04:43:15;98972.09;;;7.71;100.00
60345;BME280;46188;52.324;8.032;2023-03-25T04:45:41;98970.34;;;7.73;100.00
60345;BME280;46188;52.324;8.032;2023-03-25T04:48:33;98972.09;;;7.64;100.00
60345;BME280;46188;52.324;8.032;2023-03-25T04:51:00;98983.44;;;7.64;100.00
60345;BME280;46188;52.324;8.032;2023-03-25T04:53:28;98972.09;;;7.62;100.00
60345;BME280;46188;52.324;8.032;2023-03-25T04:55:54;98963.38;;;7.60;100.00
60345;BME280;46188;52.324;8.032;2023-03-25T04:58:19;98965.97;;;7.63;100.00
60345;BME280;46188;52.324;8.032;2023-03-25T05:00:47;98962.50;;;7.58;100.00
60345;BME280;46188;52.324;8.032;2023-03-25T05:03:14;98957.25;;;7.58;100.00
60345;BME280;46188;52.324;8.032;2023-03-25T05:05:40;98955.50;;;7.57;100.00
60345;BME280;46188;52.324;8.032;2023-03-25T05:08:05;98949.34;;;7.60;100.00
60345;BME280;46188;52.324;8.032;2023-03-25T05:10:31;98954.59;;;7.60;100.00
60345;BME280;46188;52.324;8.032;2023-03-25T05:13:01;98986.97;;;7.58;100.00
60345;BME280;46188;52.324;8.032;2023-03-25T05:15:27;98964.22;;;7.57;100.00
60345;BME280;46188;52.324;8.032;2023-03-25T05:17:54;98967.72;;;7.76;100.00
60345;BME280;46188;52.324;8.032;2023-03-25T05:20:20;98980.84;;;7.58;100.00
60345;BME280;46188;52.324;8.032;2023-03-25T05:22:46;98978.22;;;7.55;100.00
60345;BME280;46188;52.324;8.032;2023-03-25T05:25:11;98972.97;;;7.49;100.00
60345;BME280;46188;52.324;8.032;2023-03-25T05:27:37;98974.72;;;7.44;100.00
60345;BME280;46188;52.324;8.032;2023-03-25T05:30:04;98973.88;;;7.35;100.00
60345;BME280;46188;52.324;8.032;2023-03-25T05:32:29;98973.84;;;7.34;100.00
60345;BME280;46188;52.324;8.032;2023-03-25T05:34:57;98972.09;;;7.33;100.00
60345;BME280;46188;52.324;8.032;2023-03-25T05:37:22;98982.59;;;7.37;100.00
60345;BME280;46188;52.324;8.032;2023-03-25T05:39:48;98967.75;;;7.35;100.00
60345;BME280;46188;52.324;8.032;2023-03-25T05:42:14;98979.09;;;7.32;100.00
60345;BME280;46188;52.324;8.032;2023-03-25T05:44:40;98980.00;;;7.28;100.00
60345;BME280;46188;52.324;8.032;2023-03-25T05:47:19;98973.84;;;7.29;100.00
60345;BME280;46188;52.324;8.032;2023-03-25T05:49:46;98983.47;;;7.30;100.00
60345;BME280;46188;52.324;8.032;2023-03-25T05:52:11;98975.63;;;7.30;100.00
60345;BME280;46188;52.324;8.032;2023-03-25T05:54:37;98986.97;;;7.31;100.00
60345;BME280;46188;52.324;8.032;2023-03-25T05:57:05;98979.97;;;7.30;100.00
60345;BME280;46188;52.324;8.032;2023-03-25T05:59:31;98986.94;;;7.26;100.00
60345;BME280;46188;52.324;8.032;2023-03-25T06:01:57;98976.47;;;7.32;100.00
60345;BME280;46188;52.324;8.032;2023-03-25T06:04:22;98981.72;;;7.32;100.00
60345;BME280;46188;52.324;8.032;2023-03-25T06:06:48;98989.59;;;7.34;100.00
60345;BME280;46188;52.324;8.032;2023-03-25T06:09:13;98979.97;;;7.37;100.00
60345;BME280;46188;52.324;8.032;2023-03-25T06:11:39;98992.22;;;7.40;100.00
60345;BME280;46188;52.324;8.032;2023-03-25T06:14:10;98989.59;;;7.43;100.00
60345;BME280;46188;52.324;8.032;2023-03-25T06:16:36;98986.09;;;7.46;100.00
60345;BME280;46188;52.324;8.032;2023-03-25T06:19:01;98987.84;;;7.48;100.00
60345;BME280;46188;52.324;8.032;2023-03-25T06:21:30;98988.72;;;7.52;100.00
60345;BME280;46188;52.324;8.032;2023-03-25T06:23:57;98988.72;;;7.55;100.00
60345;BME280;46188;52.324;8.032;2023-03-25T06:26:24;98989.59;;;7.54;100.00
60345;BME280;46188;52.324;8.032;2023-03-25T06:28:49;98993.06;;;7.54;100.00
60345;BME280;46188;52.324;8.032;2023-03-25T06:31:23;99000.94;;;7.59;100.00
60345;BME280;46188;52.324;8.032;2023-03-25T06:33:50;98995.69;;;7.56;100.00
60345;BME280;46188;52.324;8.032;2023-03-25T06:36:17;99007.94;;;7.57;100.00
60345;BME280;46188;52.324;8.032;2023-03-25T06:38:45;99002.69;;;7.60;100.00
60345;BME280;46188;52.324;8.032;2023-03-25T06:41:11;98998.31;;;7.57;100.00
60345;BME280;46188;52.324;8.032;2023-03-25T06:43:38;98997.47;;;7.63;100.00
60345;BME280;46188;52.324;8.032;2023-03-25T06:46:03;98992.22;;;7.66;100.00
60345;BME280;46188;52.324;8.032;2023-03-25T06:48:28;99005.31;;;7.63;100.00
60345;BME280;46188;52.324;8.032;2023-03-25T06:50:54;98987.81;;;7.67;100.00
60345;BME280;46188;52.324;8.032;2023-03-25T06:53:20;99000.06;;;7.63;100.00
60345;BME280;46188;52.324;8.032;2023-03-25T06:55:46;99007.06;;;7.67;100.00
60345;BME280;46188;52.324;8.032;2023-03-25T06:58:12;98992.22;;;7.62;100.00
60345;BME280;46188;52.324;8.032;2023-03-25T07:00:37;99001.81;;;7.64;100.00
60345;BME280;46188;52.324;8.032;2023-03-25T07:03:03;98994.84;;;7.63;100.00
60345;BME280;46188;52.324;8.032;2023-03-25T07:05:28;98987.81;;;7.70;100.00
60345;BME280;46188;52.324;8.032;2023-03-25T07:07:53;99004.44;;;7.72;100.00
60345;BME280;46188;52.324;8.032;2023-03-25T07:10:18;98992.19;;;7.79;100.00
60345;BME280;46188;52.324;8.032;2023-03-25T07:12:44;98979.06;;;7.79;100.00
60345;BME280;46188;52.324;8.032;2023-03-25T07:15:09;98995.66;;;7.85;100.00
60345;BME280;46188;52.324;8.032;2023-03-25T07:17:34;98986.06;;;7.81;100.00
60345;BME280;46188;52.324;8.032;2023-03-25T07:20:00;98993.94;;;7.80;100.00
60345;BME280;46188;52.324;8.032;2023-03-25T07:22:25;98990.41;;;7.87;100.00
60345;BME280;46188;52.324;8.032;2023-03-25T07:24:50;98986.03;;;7.92;100.00
60345;BME280;46188;52.324;8.032;2023-03-25T07:27:16;99004.41;;;7.86;100.00
60345;BME280;46188;52.324;8.032;2023-03-25T07:29:41;98991.28;;;7.87;100.00
60345;BME280;46188;52.324;8.032;2023-03-25T07:32:07;98991.28;;;7.86;100.00
60345;BME280;46188;52.324;8.032;2023-03-25T07:34:32;99000.06;;;7.88;100.00
60345;BME280;46188;52.324;8.032;2023-03-25T07:36:58;99006.16;;;7.88;100.00
60345;BME280;46188;52.324;8.032;2023-03-25T07:39:23;99010.53;;;7.88;100.00
60345;BME280;46188;52.324;8.032;2023-03-25T07:41:50;98994.78;;;7.91;100.00
60345;BME280;46188;52.324;8.032;2023-03-25T07:44:15;99007.03;;;7.93;100.00
60345;BME280;46188;52.324;8.032;2023-03-25T07:46:40;99007.03;;;8.00;100.00
60345;BME280;46188;52.324;8.032;2023-03-25T07:49:06;99007.88;;;7.94;100.00
60345;BME280;46188;52.324;8.032;2023-03-25T07:51:31;99003.53;;;7.96;100.00
60345;BME280;46188;52.324;8.032;2023-03-25T07:53:59;99007.88;;;8.00;100.00
60345;BME280;46188;52.324;8.032;2023-03-25T07:56:24;99010.50;;;8.03;100.00
60345;BME280;46188;52.324;8.032;2023-03-25T07:58:49;99004.38;;;8.04;100.00
60345;BME280;46188;52.324;8.032;2023-03-25T08:01:15;99003.50;;;8.04;100.00
60345;BME280;46188;52.324;8.032;2023-03-25T08:03:40;99010.50;;;8.06;100.00
60345;BME280;46188;52.324;8.032;2023-03-25T08:06:06;99002.63;;;8.11;100.00
60345;BME280;46188;52.324;8.032;2023-03-25T08:08:32;98999.09;;;8.18;100.00
60345;BME280;46188;52.324;8.032;2023-03-25T08:10:58;99005.19;;;8.25;100.00
60345;BME280;46188;52.324;8.032;2023-03-25T08:13:24;99011.31;;;8.24;100.00
60345;BME280;46188;52.324;8.032;2023-03-25T08:15:49;98993.84;;;8.17;100.00
60345;BME280;46188;52.324;8.032;2023-03-25T08:18:14;99013.06;;;8.22;100.00
60345;BME280;46188;52.324;8.032;2023-03-25T08:20:40;99011.31;;;8.24;100.00
60345;BME280;46188;52.324;8.032;2023-03-25T08:23:06;99020.94;;;8.26;100.00
60345;BME280;46188;52.324;8.032;2023-03-25T08:25:35;99022.66;;;8.30;100.00
60345;BME280;46188;52.324;8.032;2023-03-25T08:28:02;99020.97;;;8.17;100.00
60345;BME280;46188;52.324;8.032;2023-03-25T08:30:27;99019.22;;;8.18;100.00
60345;BME280;46188;52.324;8.032;2023-03-25T08:32:52;99023.56;;;8.20;100.00
60345;BME280;46188;52.324;8.032;2023-03-25T08:35:23;99021.81;;;8.22;100.00
60345;BME280;46188;52.324;8.032;2023-03-25T08:37:49;99015.69;;;8.20;100.00
60345;BME280;46188;52.324;8.032;2023-03-25T08:40:15;99034.94;;;8.25;100.00
60345;BME280;46188;52.324;8.032;2023-03-25T08:42:41;99007.81;;;8.31;100.00
60345;BME280;46188;52.324;8.032;2023-03-25T08:45:07;99030.53;;;8.44;100.00
60345;BME280;46188;52.324;8.032;2023-03-25T08:47:33;98999.03;;;8.46;100.00
60345;BME280;46188;52.324;8.032;2023-03-25T08:49:58;99010.41;;;8.46;100.00
60345;BME280;46188;52.324;8.032;2023-03-25T08:52:23;99017.38;;;8.52;100.00
60345;BME280;46188;52.324;8.032;2023-03-25T08:54:49;99030.50;;;8.57;100.00
60345;BME280;46188;52.324;8.032;2023-03-25T08:57:14;99025.19;;;8.67;100.00
60345;BME280;46188;52.324;8.032;2023-03-25T08:59:39;99029.53;;;8.78;100.00
60345;BME280;46188;52.324;8.032;2023-03-25T09:02:05;99032.09;;;8.89;100.00
60345;BME280;46188;52.324;8.032;2023-03-25T09:04:30;99024.16;;;8.95;100.00
60345;BME280;46188;52.324;8.032;2023-03-25T09:06:56;99016.25;;;9.02;100.00
60345;BME280;46188;52.324;8.032;2023-03-25T09:09:21;99027.59;;;9.11;100.00
60345;BME280;46188;52.324;8.032;2023-03-25T09:11:47;99021.41;;;9.19;100.00
60345;BME280;46188;52.324;8.032;2023-03-25T09:14:13;99037.19;;;9.13;100.00
60345;BME280;46188;52.324;8.032;2023-03-25T09:16:38;99025.88;;;9.03;100.00
60345;BME280;46188;52.324;8.032;2023-03-25T09:19:03;99020.66;;;9.00;100.00
60345;BME280;46188;52.324;8.032;2023-03-25T09:21:29;99016.25;;;9.04;100.00
60345;BME280;46188;52.324;8.032;2023-03-25T09:23:54;99011.84;;;9.06;100.00
60345;BME280;46188;52.324;8.032;2023-03-25T09:26:20;99025.00;;;9.01;100.00
60345;BME280;46188;52.324;8.032;2023-03-25T09:28:45;99011.00;;;8.98;100.00
60345;BME280;46188;52.324;8.032;2023-03-25T09:31:11;99025.97;;;8.90;100.00
60345;BME280;46188;52.324;8.032;2023-03-25T09:33:37;99027.72;;;8.92;100.00
60345;BME280;46188;52.324;8.032;2023-03-25T09:36:02;99019.84;;;8.91;100.00
60345;BME280;46188;52.324;8.032;2023-03-25T09:38:28;99033.81;;;8.97;100.00
60345;BME280;46188;52.324;8.032;2023-03-25T09:40:54;99018.88;;;9.01;100.00
60345;BME280;46188;52.324;8.032;2023-03-25T09:43:35;99017.19;;;8.94;100.00
60345;BME280;46188;52.324;8.032;2023-03-25T09:46:03;99040.84;;;8.89;100.00
60345;BME280;46188;52.324;8.032;2023-03-25T09:48:36;99045.22;;;8.90;100.00
60345;BME280;46188;52.324;8.032;2023-03-25T09:51:23;99028.63;;;8.82;100.00
60345;BME280;46188;52.324;8.032;2023-03-25T09:53:57;99031.22;;;8.90;100.00
60345;BME280;46188;52.324;8.032;2023-03-25T09:56:25;99033.75;;;9.03;100.00
60345;BME280;46188;52.324;8.032;2023-03-25T09:58:57;99020.66;;;9.02;100.00
60345;BME280;46188;52.324;8.032;2023-03-25T10:01:58;99042.50;;;9.09;100.00
60345;BME280;46188;52.324;8.032;2023-03-25T10:04:46;99048.59;;;9.14;100.00
60345;BME280;46188;52.324;8.032;2023-03-25T10:10:27;99062.53;;;9.28;100.00
60345;BME280;46188;52.324;8.032;2023-03-25T10:13:31;99060.03;;;9.07;100.00
60345;BME280;46188;52.324;8.032;2023-03-25T10:22:00;99072.19;;;9.28;100.00
60345;BME280;46188;52.324;8.032;2023-03-25T10:24:38;99065.91;;;9.49;100.00
60345;BME280;46188;52.324;8.032;2023-03-25T10:27:12;99068.44;;;9.59;100.00
60345;BME280;46188;52.324;8.032;2023-03-25T10:29:44;99075.25;;;9.88;100.00
60345;BME280;46188;52.324;8.032;2023-03-25T10:32:15;99057.66;;;9.92;100.00
60345;BME280;46188;52.324;8.032;2023-03-25T10:34:50;99044.13;;;10.27;100.00
60345;BME280;46188;52.324;8.032;2023-03-25T10:37:27;99077.81;;;9.93;100.00
60345;BME280;46188;52.324;8.032;2023-03-25T10:39:59;99057.84;;;9.69;100.00
60345;BME280;46188;52.324;8.032;2023-03-25T10:42:37;99065.91;;;9.50;100.00
60345;BME280;46188;52.324;8.032;2023-03-25T10:45:14;99066.81;;;9.41;100.00
60345;BME280;46188;52.324;8.032;2023-03-25T10:47:43;99055.50;;;9.32;100.00
60345;BME280;46188;52.324;8.032;2023-03-25T10:50:15;99061.63;;;9.37;100.00
60345;BME280;46188;52.324;8.032;2023-03-25T10:52:41;99068.53;;;9.47;100.00
60345;BME280;46188;52.324;8.032;2023-03-25T10:55:20;99055.31;;;9.56;100.00
60345;BME280;46188;52.324;8.032;2023-03-25T10:57:48;99064.09;;;9.58;100.00
60345;BME280;46188;52.324;8.032;2023-03-25T11:00:16;99057.09;;;9.54;100.00
60345;BME280;46188;52.324;8.032;2023-03-25T11:02:48;99054.56;;;9.39;100.00
60345;BME280;46188;52.324;8.032;2023-03-25T11:05:17;99052.91;;;9.29;100.00
60345;BME280;46188;52.324;8.032;2023-03-25T11:07:48;99057.25;;;9.30;100.00
60345;BME280;46188;52.324;8.032;2023-03-25T11:12:43;99063.38;;;9.33;100.00
60345;BME280;46188;52.324;8.032;2023-03-25T11:15:17;99072.13;;;9.35;100.00
60345;BME280;46188;52.324;8.032;2023-03-25T11:17:46;99053.66;;;9.43;100.00
60345;BME280;46188;52.324;8.032;2023-03-25T11:20:20;99043.03;;;9.58;100.00
60345;BME280;46188;52.324;8.032;2023-03-25T11:22:52;99049.75;;;9.95;100.00
60345;BME280;46188;52.324;8.032;2023-03-25T11:25:38;99054.16;;;9.91;100.00
60345;BME280;46188;52.324;8.032;2023-03-25T11:28:13;99043.72;;;9.79;100.00
60345;BME280;46188;52.324;8.032;2023-03-25T11:31:19;99051.69;;;9.71;100.00
60345;BME280;46188;52.324;8.032;2023-03-25T11:36:43;99044.84;;;9.53;100.00
60345;BME280;46188;52.324;8.032;2023-03-25T11:41:49;99055.41;;;9.44;100.00
60345;BME280;46188;52.324;8.032;2023-03-25T11:44:22;99037.00;;;9.44;100.00
60345;BME280;46188;52.324;8.032;2023-03-25T11:46:52;99048.34;;;9.49;100.00
60345;BME280;46188;52.324;8.032;2023-03-25T11:49:20;99050.19;;;9.35;100.00
60345;BME280;46188;52.324;8.032;2023-03-25T11:51:48;99056.38;;;9.31;100.00
60345;BME280;46188;52.324;8.032;2023-03-25T11:54:15;99055.56;;;9.21;100.00
60345;BME280;46188;52.324;8.032;2023-03-25T11:56:42;99070.50;;;9.11;100.00
60345;BME280;46188;52.324;8.032;2023-03-25T11:59:34;99065.34;;;8.96;100.00
60345;BME280;46188;52.324;8.032;2023-03-25T12:02:17;99080.28;;;8.83;100.00
60345;BME280;46188;52.324;8.032;2023-03-25T12:05:01;99065.41;;;8.82;100.00
60345;BME280;46188;52.324;8.032;2023-03-25T12:07:28;99053.09;;;8.89;100.00
60345;BME280;46188;52.324;8.032;2023-03-25T12:10:03;99058.19;;;9.24;100.00
60345;BME280;46188;52.324;8.032;2023-03-25T12:12:36;99059.13;;;9.15;100.00
60345;BME280;46188;52.324;8.032;2023-03-25T12:15:26;99055.69;;;9.01;100.00
60345;BME280;46188;52.324;8.032;2023-03-25T12:20:38;99052.31;;;8.77;100.00
60345;BME280;46188;52.324;8.032;2023-03-25T12:23:46;99061.06;;;8.76;100.00
60345;BME280;46188;52.324;8.032;2023-03-25T12:26:17;99061.03;;;8.81;100.00
60345;BME280;46188;52.324;8.032;2023-03-25T12:29:09;99066.31;;;8.72;100.00
60345;BME280;46188;52.324;8.032;2023-03-25T12:32:09;99064.63;;;8.58;100.00
60345;BME280;46188;52.324;8.032;2023-03-25T12:38:20;99061.13;;;8.58;100.00
60345;BME280;46188;52.324;8.032;2023-03-25T12:43:10;99057.66;;;8.39;100.00
60345;BME280;46188;52.324;8.032;2023-03-25T12:48:39;99069.06;;;8.30;100.00
60345;BME280;46188;52.324;8.032;2023-03-25T12:51:23;99055.94;;;8.22;100.00
60345;BME280;46188;52.324;8.032;2023-03-25T12:54:07;99057.75;;;8.09;100.00
60345;BME280;46188;52.324;8.032;2023-03-25T12:59:36;99059.47;;;8.12;100.00
60345;BME280;46188;52.324;8.032;2023-03-25T13:07:53;99052.22;;;8.94;100.00
60345;BME280;46188;52.324;8.032;2023-03-25T13:10:21;99048.75;;;8.83;100.00
60345;BME280;46188;52.324;8.032;2023-03-25T13:12:53;99047.94;;;8.76;100.00
60345;BME280;46188;52.324;8.032;2023-03-25T13:15:23;99043.53;;;8.75;100.00
60345;BME280;46188;52.324;8.032;2023-03-25T13:20:21;99041.84;;;8.65;100.00
60345;BME280;46188;52.324;8.032;2023-03-25T13:22:51;99056.75;;;8.60;100.00
60345;BME280;46188;52.324;8.032;2023-03-25T13:28:27;99045.41;;;8.36;100.00
60345;BME280;46188;52.324;8.032;2023-03-25T13:30:55;99046.28;;;8.32;100.00
60345;BME280;46188;52.324;8.032;2023-03-25T13:33:27;99044.56;;;8.28;100.00
60345;BME280;46188;52.324;8.032;2023-03-25T13:36:13;99048.97;;;8.20;100.00
60345;BME280;46188;52.324;8.032;2023-03-25T13:38:45;99036.69;;;8.17;100.00
60345;BME280;46188;52.324;8.032;2023-03-25T13:41:22;99025.34;;;8.17;100.00
60345;BME280;46188;52.324;8.032;2023-03-25T13:44:04;99027.06;;;8.24;100.00
60345;BME280;46188;52.324;8.032;2023-03-25T13:46:36;99019.19;;;8.24;100.00
60345;BME280;46188;52.324;8.032;2023-03-25T13:49:20;99021.75;;;8.55;100.00
60345;BME280;46188;52.324;8.032;2023-03-25T13:51:48;99016.38;;;8.79;100.00
60345;BME280;46188;52.324;8.032;2023-03-25T13:54:18;99019.78;;;8.97;100.00
60345;BME280;46188;52.324;8.032;2023-03-25T14:00:11;99020.66;;;9.02;100.00
60345;BME280;46188;52.324;8.032;2023-03-25T14:10:53;99030.41;;;8.75;100.00
60345;BME280;46188;52.324;8.032;2023-03-25T14:13:32;99029.56;;;8.70;100.00
60345;BME280;46188;52.324;8.032;2023-03-25T14:16:04;99015.56;;;8.68;100.00
60345;BME280;46188;52.324;8.032;2023-03-25T14:18:31;99026.09;;;8.60;100.00
60345;BME280;46188;52.324;8.032;2023-03-25T14:26:48;99020.03;;;8.32;100.00
60345;BME280;46188;52.324;8.032;2023-03-25T14:29:20;99028.81;;;8.25;100.00
60345;BME280;46188;52.324;8.032;2023-03-25T14:32:00;99039.31;;;8.19;100.00
60345;BME280;46188;52.324;8.032;2023-03-25T14:34:26;99029.69;;;8.21;100.00
60345;BME280;46188;52.324;8.032;2023-03-25T14:39:37;99044.56;;;8.28;100.00
60345;BME280;46188;52.324;8.032;2023-03-25T14:42:10;99008.66;;;8.41;100.00
60345;BME280;46188;52.324;8.032;2023-03-25T14:44:42;99027.00;;;8.48;100.00